TCL - Tuscaloosa Ntl

Pirep is a free, collaborative database of all public and private airports located within the United States. All pilots are welcome to contribute, edit, and improve any airport they have local knowledge about, no registration required.
Are you familiar with this airport? Help out other pilots by adding your local knowledge.
Uploaded photos will be licensed under a CC BY-SA 4.0 license. Please only upload photos you have the rights to use.
Tags
Public
Undocu­mented
METAR / TAF
Edit Tags
Food
Camping
Lodging
Car Rental
Bicycles
Swimming
Golfing
Fishing
Hot Springs
Museum
Flying Clubs
Airpark
Upcoming Events
No upcoming events. Is anything happening here soon?
*
*
*

Where exactly on/near the airport is this event taking place?

Is there a webpage with more information for this event?

Who should be contacted for more information?

What is this event all about?

Repeat every
Description
Transient Parking
Fuel Location
Landing & Tie-down Fees
Crew Car Availability
Flying Clubs
WiFi Access
Airport Statistics
Location: Tuscaloosa, AL
Elevation: 169ft
Sectional: Atlanta
Activation date: Apr 1940
Fuel: 100LL, A (prices)
Runway 04/22: 6,498ft
Runway 12/30: 4,000ft
Access: Open to the public
Current Weather — VFR
  • Weather data is strictly informational and not for flight planning purposes.
  • METAR
    2024-04-24 05:53:00 CDT
    Ceiling Wind Temperature Dewpoint Weather Visbility
    6,500ft 160° @ 4kt 53°F 51°F N/A 10SM
    Clouds: Broken @ 6,500ft
    Raw: KTCL 241053Z AUTO 16004KT 10SM BKN065 12/11 A3010 RMK AO2 SLP192 T01220111
  • TAF
    2024-04-24 07:00:00 CDT – 2024-04-24 09:00:00 CDT
    Ceiling Wind Weather Visbility
    Sky clear Variable N/A 6SM
    Clouds: Few @ 25,000ft
    Raw: KTCL 241120Z 2412/2512 VRB04KT P6SM FEW250 FM241400 24008KT P6SM BKN070 FM242000 27008KT P6SM VCSH SCT035 BKN050 FM250200 00000KT P6SM SCT090
  • TAF
    2024-04-24 09:00:00 CDT – 2024-04-24 15:00:00 CDT
    Ceiling Wind Weather Visbility
    7,000ft 240° @ 8kt N/A 6SM
    Clouds: Broken @ 7,000ft
    Raw: KTCL 241120Z 2412/2512 VRB04KT P6SM FEW250 FM241400 24008KT P6SM BKN070 FM242000 27008KT P6SM VCSH SCT035 BKN050 FM250200 00000KT P6SM SCT090
  • TAF
    2024-04-24 15:00:00 CDT – 2024-04-24 21:00:00 CDT
    Ceiling Wind Weather Visbility
    5,000ft 270° @ 8kt Showers in vicinity 6SM
    Clouds: Scattered @ 3,500ft, Broken @ 5,000ft
    Raw: KTCL 241120Z 2412/2512 VRB04KT P6SM FEW250 FM241400 24008KT P6SM BKN070 FM242000 27008KT P6SM VCSH SCT035 BKN050 FM250200 00000KT P6SM SCT090
  • TAF
    2024-04-24 21:00:00 CDT – 2024-04-25 07:00:00 CDT
    Ceiling Wind Weather Visbility
    Sky clear Calm N/A 6SM
    Clouds: Scattered @ 9,000ft
    Raw: KTCL 241120Z 2412/2512 VRB04KT P6SM FEW250 FM241400 24008KT P6SM BKN070 FM242000 27008KT P6SM VCSH SCT035 BKN050 FM250200 00000KT P6SM SCT090
Click/tap to add an annotation marker to the map
Airport Webcams
No webcams added yet.
Direct links to live image URLs will be displayed inline on this page. URLs to separate webpages will be linked to.
URL:
Direct links to live image URLs will be displayed inline on this page. URLs to separate webpages will be linked to.
URL:
Remarks
  • 24 hr ppr rqr for unsked acr opns gtr than 30 pax seats 2130-0500 - ctc amgr. index b arff capability avbl h24.
  • Birds & deer on & invof arpt.
  • Twy d clsd btn twy d5 & d6 when twr clsd.
  • For cd when twr clsd, ctc birmingham apch at 205-769-3890.
  • Rwy 12/30 not avbl for sked opns with more than 9 psgr seats or unsked acr at least 31 psgr seats.
Comments
Leave a comment What was your experience like at this airport?